• Join FlightAware (Why Join?)
  • Login
  • US Flag 
03:33PM EDT


 

Airport Tracker/Info


-or-


 

Live Flight TrackerFlight Track Log ✈ ASQ5685 ✈ 28-Sep-2013 ✈ KATL - KIAD

Flight Track Log - Related Links

Times and Time Zones

All times are in EDT time to prevent confusion due to time zone crossing. See the ASQ5685 flight status page for this flight to view local times or setup timezone preferences in your user account.

Time Position Orientation Groundspeed Altitude Reporting Facility
EDT Latitude Longitude Course Direction KTS MPH feet Rate Location/Type
10:06AM 33.6497 -84.3681 71° East 424 488 3,100  Level Atlanta Center
10:07AM 33.6667 -84.2667 79° East 250 288 5,900 2,280 Climbing Atlanta TRACON
10:08AM 33.6833 -84.1833 76° East 285 328 8,100 2,280 Climbing Atlanta TRACON
10:09AM 33.9232 -84.0871 48° Northeast  Level Estimated
10:09AM 33.7044 -84.1161 69° East 283 326 10,100  Level Atlanta Center
10:10AM 33.9946 -84.0015 53° Northeast  Level Estimated
10:10AM 33.7442 -84.0239 63° Northeast 298 343 10,900  Level Atlanta Center
10:11AM 34.0281 -83.8870 71° East  Level FlightAware Approximate
10:11AM 33.8006 -83.9289 54° Northeast 321 369 11,900  Level Atlanta Center
10:12AM 33.8525 -83.8386 55° Northeast 350 403 12,700 900 Climbing Atlanta Center
10:13AM 33.9150 -83.7358 54° Northeast 366 421 13,700 900 Climbing Atlanta Center
10:14AM 33.9794 -83.6356 52° Northeast 372 428 14,600 900 Climbing Atlanta Center
10:15AM 34.0458 -83.5325 52° Northeast 380 437 15,600 900 Climbing Atlanta Center
10:16AM 34.1119 -83.4317 52° Northeast 385 443 16,400 900 Climbing Atlanta Center
10:17AM 34.1761 -83.3231 54° Northeast 385 443 17,400 720 Climbing Atlanta Center
10:18AM 34.2422 -83.2194 52° Northeast 385 443 17,900 600 Climbing Atlanta Center
10:19AM 34.3083 -83.1133 53° Northeast 391 450 18,700 840 Climbing Atlanta Center
10:20AM 34.3783 -82.9994 53° Northeast 391 450 19,600 840 Climbing Atlanta Center
10:21AM 34.4422 -82.8928 54° Northeast 391 450 20,400 780 Climbing Atlanta Center
10:22AM 34.5039 -82.7886 54° Northeast 390 449 21,200 1,020 Climbing Atlanta Center
10:23AM 34.5672 -82.6842 54° Northeast 384 442 22,500 900 Climbing Atlanta Center
10:24AM 34.6164 -82.6025 54° Northeast 379 436 23,100 900 Climbing Atlanta Center
10:25AM 34.6861 -82.4953 52° Northeast 369 425 24,400 960 Climbing Atlanta Center
10:26AM 34.7494 -82.3956 52° Northeast 369 425 25,100 660 Climbing Atlanta Center
10:27AM 34.8128 -82.2956 52° Northeast 369 425 25,800 660 Climbing Atlanta Center
10:28AM 34.8719 -82.1906 55° Northeast 369 425 26,500 660 Climbing Atlanta Center
10:29AM 34.9453 -82.0775 52° Northeast 375 432 27,200 660 Climbing Atlanta Center
10:30AM 35.0061 -81.9747 54° Northeast 375 432 27,900 600 Climbing Atlanta Center
10:31AM 35.0669 -81.8692 55° Northeast 375 432 28,500 600 Climbing Atlanta Center
10:32AM 35.1194 -81.7711 57° Northeast 375 432 29,200 600 Climbing Atlanta Center
10:33AM 35.1736 -81.6656 58° Northeast 375 432 29,700 480 Climbing Atlanta Center
10:34AM 35.2300 -81.5597 57° Northeast 380 437 30,200 480 Climbing Atlanta Center
10:35AM 35.2861 -81.4486 58° Northeast 375 432 30,700 360 Climbing Atlanta Center
10:36AM 35.3444 -81.3425 56° Northeast 375 432 31,000 120 Climbing Atlanta Center
10:37AM 35.3983 -81.2311 59° Northeast 380 437 31,000  Level Atlanta Center
10:38AM 35.4581 -81.1167 57° Northeast 392 451 31,000  Level Atlanta Center
10:39AM 35.5181 -81.0025 57° Northeast 392 451 31,000  Level Atlanta Center
10:40AM 35.5778 -80.8906 57° Northeast 392 451 31,000  Level Atlanta Center
10:41AM 35.6353 -80.7758 58° Northeast 397 457 31,000  Level Atlanta Center
10:42AM 35.6967 -80.6608 57° Northeast 396 456 31,000  Level Atlanta Center
10:43AM 35.7539 -80.5433 59° Northeast 396 456 31,000  Level Atlanta Center
10:44AM 35.8153 -80.4281 57° Northeast 396 456 31,000  Level Atlanta Center
10:45AM 35.8783 -80.2997 59° Northeast 396 456 31,000  Level Atlanta Center
10:47AM 35.9839 -80.0919 58° Northeast 387 445 31,000  Level Washington Center
10:48AM 36.0442 -79.9822 56° Northeast 387 445 31,000  Level Washington Center
10:49AM 36.1089 -79.8675 55° Northeast 387 445 31,000 -540 Level Washington Center
10:50AM 36.1822 -79.7378 55° Northeast 407 468 30,000 -1,920 Descending Washington Center
10:51AM 36.2489 -79.6178 55° Northeast 423 487 27,200 -1,560 Descending Washington Center
10:52AM 36.3131 -79.5075 54° Northeast 429 494 27,000 -420 Descending Washington Center
10:53AM 36.3883 -79.3772 54° Northeast 436 502 26,400 -960 Descending Washington Center
10:54AM 36.4506 -79.2589 57° Northeast 436 502 25,100 -720 Descending Washington Center
10:55AM 36.5269 -79.1408 51° Northeast 443 510 25,000 -60 Descending Washington Center
10:56AM 36.6156 -79.0361 43° Northeast 433 498 25,000  Level Washington Center
10:57AM 36.7047 -78.9133 48° Northeast 433 498 25,000  Level Washington Center
10:58AM 36.7869 -78.8078 46° Northeast 428 493 25,000  Level Washington Center
10:59AM 36.8689 -78.6994 47° Northeast 428 493 25,000  Level Washington Center
11:00AM 36.9422 -78.6064 45° Northeast 421 484 25,000  Level Washington Center
11:01AM 37.0242 -78.4978 47° Northeast 421 484 25,000  Level Washington Center
11:02AM 37.1081 -78.3967 44° Northeast 414 476 25,000  Level Washington Center
11:03AM 37.2039 -78.3117 35° Northeast 409 471 25,000  Level Washington Center
11:04AM 37.3103 -78.2214 34° Northeast 415 478 25,000 -900 Level Washington Center
11:05AM 37.4017 -78.1381 36° Northeast 415 478 23,300 -1,560 Descending Washington Center
11:06AM 37.4994 -78.0550 34° Northeast 415 478 22,000 -1,380 Descending Washington Center
11:07AM 37.5928 -77.9717 35° Northeast 415 478 20,600 -1,800 Descending Washington Center
11:08AM 37.6861 -77.8906 35° Northeast 415 478 18,500 -1,920 Descending Washington Center
11:09AM 37.7753 -77.8092 36° Northeast 405 466 16,800 3,180 Descending Washington Center
11:10AM 37.8664 -77.7303 34° Northeast 400 460 25,000 -2,040 Climbing Washington Center
11:11AM 37.9533 -77.6511 36° Northeast 389 448 12,800 -6,660 Descending Washington Center
11:12AM 38.0294 -77.5847 34° Northeast 381 438 11,800 -1,320 Descending Washington Center
11:13AM 38.1142 -77.5078 36° Northeast 376 433 10,200 -900 Descending Washington Center
11:14AM 38.1839 -77.4489 34° Northeast 344 396 10,000 -840 Descending Washington Center
11:15AM 38.2533 -77.4056 26° Northeast 298 343 8,600 -1,680 Descending Washington Center
11:16AM 38.3206 -77.3675 24° Northeast 270 311 6,700 -1,980 Descending Washington Center
11:17AM 38.3892 -77.3878 347° North 246 283 4,600 -1,320 Descending Washington Center
11:18AM 38.4533 -77.4211 338° Northwest 246 283 4,100 -360 Descending Washington Center
11:19AM 38.5133 -77.4464 342° North 233 268 4,000  Descending Washington Center
11:20AM 38.5739 -77.4453 North 220 253 4,100 -240 Climbing Washington Center
11:21AM 38.6364 -77.4442 North 220 253 3,600 -540 Descending Washington Center
11:22AM 38.7167 -77.4333 North 217 250 3,000 -360 Descending Potomac TRACON
11:23AM 38.7667 -77.4333 360° North 217 250 3,000 -240 Level Potomac TRACON
11:24AM 38.8167 -77.4333 360° North 187 215 2,600 -720 Descending Potomac TRACON
11:25AM 38.8667 -77.4333 360° North 162 186 1,600 -900 Descending Potomac TRACON
11:26AM 38.9000 -77.4333 360° North 143 165 800 -840 Descending Potomac TRACON